sensor_id;sensor_type;location;lat;lon;timestamp;pressure;altitude;pressure_sealevel;temperature;humidity
18755;BME280;35061;47.664;9.166;2022-12-10T00:01:37;100185.09;;;2.41;91.57
18755;BME280;35061;47.664;9.166;2022-12-10T00:04:05;100181.23;;;2.47;91.82
18755;BME280;35061;47.664;9.166;2022-12-10T00:06:34;100186.23;;;2.56;91.84
18755;BME280;35061;47.664;9.166;2022-12-10T00:09:04;100184.30;;;2.66;91.91
18755;BME280;35061;47.664;9.166;2022-12-10T00:11:33;100178.52;;;2.70;91.44
18755;BME280;35061;47.664;9.166;2022-12-10T00:14:00;100186.79;;;2.77;91.64
18755;BME280;35061;47.664;9.166;2022-12-10T00:16:28;100176.78;;;2.85;91.51
18755;BME280;35061;47.664;9.166;2022-12-10T00:18:58;100178.25;;;2.90;91.34
18755;BME280;35061;47.664;9.166;2022-12-10T00:21:28;100173.09;;;2.88;90.73
18755;BME280;35061;47.664;9.166;2022-12-10T00:23:57;100175.21;;;2.84;90.86
18755;BME280;35061;47.664;9.166;2022-12-10T00:26:27;100173.31;;;2.81;90.69
18755;BME280;35061;47.664;9.166;2022-12-10T00:28:56;100173.64;;;2.83;91.14
18755;BME280;35061;47.664;9.166;2022-12-10T00:31:26;100169.69;;;2.81;90.70
18755;BME280;35061;47.664;9.166;2022-12-10T00:34:00;100163.57;;;2.82;91.07
18755;BME280;35061;47.664;9.166;2022-12-10T00:36:34;100176.36;;;2.87;90.70
18755;BME280;35061;47.664;9.166;2022-12-10T00:39:03;100167.53;;;2.85;90.84
18755;BME280;35061;47.664;9.166;2022-12-10T00:41:31;100168.31;;;2.85;90.48
18755;BME280;35061;47.664;9.166;2022-12-10T00:43:58;100178.98;;;2.81;90.52
18755;BME280;35061;47.664;9.166;2022-12-10T00:46:27;100178.84;;;2.85;90.63
18755;BME280;35061;47.664;9.166;2022-12-10T00:48:55;100177.70;;;2.82;90.41
18755;BME280;35061;47.664;9.166;2022-12-10T00:51:25;100178.05;;;2.84;90.49
18755;BME280;35061;47.664;9.166;2022-12-10T00:53:55;100174.33;;;2.87;90.59
18755;BME280;35061;47.664;9.166;2022-12-10T00:56:25;100176.55;;;2.92;90.60
18755;BME280;35061;47.664;9.166;2022-12-10T00:58:54;100182.34;;;2.89;89.59
18755;BME280;35061;47.664;9.166;2022-12-10T01:01:37;100183.26;;;2.86;90.40
18755;BME280;35061;47.664;9.166;2022-12-10T01:04:08;100185.97;;;2.89;90.24
18755;BME280;35061;47.664;9.166;2022-12-10T01:06:43;100179.07;;;2.90;90.47
18755;BME280;35061;47.664;9.166;2022-12-10T01:09:13;100172.92;;;2.92;90.60
18755;BME280;35061;47.664;9.166;2022-12-10T01:11:43;100173.19;;;2.98;90.52
18755;BME280;35061;47.664;9.166;2022-12-10T01:14:14;100180.41;;;2.99;90.23
18755;BME280;35061;47.664;9.166;2022-12-10T01:16:42;100184.60;;;2.94;89.99
18755;BME280;35061;47.664;9.166;2022-12-10T01:19:11;100176.23;;;2.90;90.15
18755;BME280;35061;47.664;9.166;2022-12-10T01:21:39;100174.10;;;2.82;89.71
18755;BME280;35061;47.664;9.166;2022-12-10T01:24:07;100171.02;;;2.76;90.12
18755;BME280;35061;47.664;9.166;2022-12-10T01:26:35;100160.98;;;2.75;90.50
18755;BME280;35061;47.664;9.166;2022-12-10T01:29:04;100167.66;;;2.81;90.38
18755;BME280;35061;47.664;9.166;2022-12-10T01:31:36;100164.48;;;2.79;90.32
18755;BME280;35061;47.664;9.166;2022-12-10T01:34:06;100160.53;;;2.76;90.21
18755;BME280;35061;47.664;9.166;2022-12-10T01:36:36;100162.23;;;2.74;90.16
18755;BME280;35061;47.664;9.166;2022-12-10T01:39:06;100160.86;;;2.78;90.49
18755;BME280;35061;47.664;9.166;2022-12-10T01:41:55;100166.38;;;2.82;90.39
18755;BME280;35061;47.664;9.166;2022-12-10T01:46:54;100175.80;;;2.79;90.17
18755;BME280;35061;47.664;9.166;2022-12-10T01:49:34;100165.73;;;2.78;90.29
18755;BME280;35061;47.664;9.166;2022-12-10T01:52:04;100172.86;;;2.83;90.85
18755;BME280;35061;47.664;9.166;2022-12-10T01:54:36;100174.33;;;2.87;90.61
18755;BME280;35061;47.664;9.166;2022-12-10T01:57:07;100169.55;;;2.84;90.34
18755;BME280;35061;47.664;9.166;2022-12-10T01:59:36;100172.27;;;2.88;90.28
18755;BME280;35061;47.664;9.166;2022-12-10T02:02:17;100178.94;;;2.94;90.35
18755;BME280;35061;47.664;9.166;2022-12-10T02:08:10;100184.04;;;2.86;90.13
18755;BME280;35061;47.664;9.166;2022-12-10T02:13:45;100189.57;;;2.90;90.27
18755;BME280;35061;47.664;9.166;2022-12-10T02:16:31;100199.18;;;2.92;90.12
18755;BME280;35061;47.664;9.166;2022-12-10T02:21:37;100200.33;;;2.95;90.02
18755;BME280;35061;47.664;9.166;2022-12-10T02:24:09;100198.40;;;2.92;89.87
18755;BME280;35061;47.664;9.166;2022-12-10T02:29:17;100188.20;;;2.95;89.83
18755;BME280;35061;47.664;9.166;2022-12-10T02:31:55;100189.14;;;2.91;89.05
18755;BME280;35061;47.664;9.166;2022-12-10T02:34:26;100190.71;;;2.92;89.72
18755;BME280;35061;47.664;9.166;2022-12-10T02:36:57;100190.26;;;2.94;89.73
18755;BME280;35061;47.664;9.166;2022-12-10T02:39:34;100188.55;;;2.97;89.91
18755;BME280;35061;47.664;9.166;2022-12-10T02:42:04;100190.81;;;3.02;90.03
18755;BME280;35061;47.664;9.166;2022-12-10T02:44:35;100193.63;;;3.02;89.82
18755;BME280;35061;47.664;9.166;2022-12-10T02:47:05;100193.03;;;3.07;89.97
18755;BME280;35061;47.664;9.166;2022-12-10T02:49:34;100179.59;;;3.11;89.68
18755;BME280;35061;47.664;9.166;2022-12-10T02:52:13;100180.74;;;3.01;89.09
18755;BME280;35061;47.664;9.166;2022-12-10T02:54:43;100180.41;;;2.99;88.97
18755;BME280;35061;47.664;9.166;2022-12-10T02:59:59;100175.21;;;2.84;89.25
18755;BME280;35061;47.664;9.166;2022-12-10T03:02:43;100179.40;;;2.79;89.46
18755;BME280;35061;47.664;9.166;2022-12-10T03:05:19;100181.00;;;2.81;89.69
18755;BME280;35061;47.664;9.166;2022-12-10T03:07:56;100174.56;;;2.80;89.50
18755;BME280;35061;47.664;9.166;2022-12-10T03:10:45;100170.93;;;2.79;89.53
18755;BME280;35061;47.664;9.166;2022-12-10T03:13:17;100176.69;;;2.76;89.54
18755;BME280;35061;47.664;9.166;2022-12-10T03:15:48;100183.26;;;2.73;89.55
18755;BME280;35061;47.664;9.166;2022-12-10T03:18:19;100180.22;;;2.67;89.55
18755;BME280;35061;47.664;9.166;2022-12-10T03:20:51;100171.39;;;2.65;89.40
18755;BME280;35061;47.664;9.166;2022-12-10T03:23:20;100166.88;;;2.68;89.70
18755;BME280;35061;47.664;9.166;2022-12-10T03:25:49;100168.25;;;2.63;89.21
18755;BME280;35061;47.664;9.166;2022-12-10T03:28:19;100162.27;;;2.61;89.51
18755;BME280;35061;47.664;9.166;2022-12-10T03:30:47;100167.76;;;2.64;89.62
18755;BME280;35061;47.664;9.166;2022-12-10T03:33:17;100169.03;;;2.63;89.62
18755;BME280;35061;47.664;9.166;2022-12-10T03:35:46;100169.39;;;2.65;89.62
18755;BME280;35061;47.664;9.166;2022-12-10T03:38:15;100177.05;;;2.65;89.49
18755;BME280;35061;47.664;9.166;2022-12-10T03:40:43;100169.03;;;2.63;89.53
18755;BME280;35061;47.664;9.166;2022-12-10T03:43:13;100164.06;;;2.68;89.87
18755;BME280;35061;47.664;9.166;2022-12-10T03:45:41;100165.86;;;2.74;90.10
18755;BME280;35061;47.664;9.166;2022-12-10T03:48:09;100168.22;;;2.76;89.57
18755;BME280;35061;47.664;9.166;2022-12-10T03:50:37;100169.36;;;2.78;89.57
18755;BME280;35061;47.664;9.166;2022-12-10T03:53:04;100174.56;;;2.80;89.25
18755;BME280;35061;47.664;9.166;2022-12-10T03:55:32;100165.37;;;2.76;88.63
18755;BME280;35061;47.664;9.166;2022-12-10T03:58:00;100166.19;;;2.76;89.03
18755;BME280;35061;47.664;9.166;2022-12-10T04:00:28;100168.48;;;2.69;87.98
18755;BME280;35061;47.664;9.166;2022-12-10T04:02:55;100172.86;;;2.70;88.97
18755;BME280;35061;47.664;9.166;2022-12-10T04:05:23;100174.46;;;2.71;88.74
18755;BME280;35061;47.664;9.166;2022-12-10T04:07:51;100172.86;;;2.70;88.83
18755;BME280;35061;47.664;9.166;2022-12-10T04:10:18;100161.55;;;2.70;88.95
18755;BME280;35061;47.664;9.166;2022-12-10T04:12:46;100166.77;;;2.71;88.79
18755;BME280;35061;47.664;9.166;2022-12-10T04:15:38;100171.29;;;2.69;88.46
18755;BME280;35061;47.664;9.166;2022-12-10T04:18:24;100164.39;;;2.70;89.08
18755;BME280;35061;47.664;9.166;2022-12-10T04:20:52;100174.33;;;2.74;88.91
18755;BME280;35061;47.664;9.166;2022-12-10T04:23:38;100183.26;;;2.73;88.74
18755;BME280;35061;47.664;9.166;2022-12-10T04:26:24;100180.77;;;2.75;88.77
18755;BME280;35061;47.664;9.166;2022-12-10T04:29:11;100184.30;;;2.66;88.02
18755;BME280;35061;47.664;9.166;2022-12-10T04:31:39;100175.48;;;2.64;88.44
18755;BME280;35061;47.664;9.166;2022-12-10T04:34:06;100179.43;;;2.67;88.35
18755;BME280;35061;47.664;9.166;2022-12-10T04:36:34;100181.23;;;2.60;87.96
18755;BME280;35061;47.664;9.166;2022-12-10T04:39:02;100182.05;;;2.61;88.49
18755;BME280;35061;47.664;9.166;2022-12-10T04:41:30;100178.09;;;2.58;88.38
18755;BME280;35061;47.664;9.166;2022-12-10T04:43:58;100183.06;;;2.54;88.32
18755;BME280;35061;47.664;9.166;2022-12-10T04:46:26;100177.41;;;2.54;88.46
18755;BME280;35061;47.664;9.166;2022-12-10T04:48:55;100179.34;;;2.57;88.51
18755;BME280;35061;47.664;9.166;2022-12-10T04:51:22;100182.05;;;2.61;88.80
18755;BME280;35061;47.664;9.166;2022-12-10T04:53:50;100180.22;;;2.67;88.62
18755;BME280;35061;47.664;9.166;2022-12-10T04:56:18;100181.03;;;2.68;88.18
18755;BME280;35061;47.664;9.166;2022-12-10T04:58:46;100183.52;;;2.65;88.14
18755;BME280;35061;47.664;9.166;2022-12-10T05:01:13;100183.16;;;2.63;88.02
18755;BME280;35061;47.664;9.166;2022-12-10T05:03:41;100178.74;;;2.62;88.19
18755;BME280;35061;47.664;9.166;2022-12-10T05:06:12;100176.72;;;2.63;88.40
18755;BME280;35061;47.664;9.166;2022-12-10T05:08:40;100174.23;;;2.65;88.25
18755;BME280;35061;47.664;9.166;2022-12-10T05:11:14;100173.09;;;2.62;88.14
18755;BME280;35061;47.664;9.166;2022-12-10T05:13:42;100170.14;;;2.66;88.21
18755;BME280;35061;47.664;9.166;2022-12-10T05:16:12;100173.31;;;2.68;88.29
18755;BME280;35061;47.664;9.166;2022-12-10T05:18:39;100181.79;;;2.68;88.11
18755;BME280;35061;47.664;9.166;2022-12-10T05:21:11;100179.79;;;2.69;88.26
18755;BME280;35061;47.664;9.166;2022-12-10T05:23:42;100182.27;;;2.67;88.17
18755;BME280;35061;47.664;9.166;2022-12-10T05:28:46;100187.48;;;2.55;87.97
18755;BME280;35061;47.664;9.166;2022-12-10T05:31:17;100191.20;;;2.52;88.36
18755;BME280;35061;47.664;9.166;2022-12-10T05:33:45;100179.43;;;2.41;88.26
18755;BME280;35061;47.664;9.166;2022-12-10T05:36:16;100186.79;;;2.38;88.38
18755;BME280;35061;47.664;9.166;2022-12-10T05:38:44;100189.37;;;2.32;88.77
18755;BME280;35061;47.664;9.166;2022-12-10T05:41:23;100198.56;;;2.36;88.88
18755;BME280;35061;47.664;9.166;2022-12-10T05:43:54;100198.89;;;2.39;89.22
18755;BME280;35061;47.664;9.166;2022-12-10T05:46:25;100203.73;;;2.38;89.07
18755;BME280;35061;47.664;9.166;2022-12-10T05:48:53;100203.73;;;2.38;89.37
18755;BME280;35061;47.664;9.166;2022-12-10T05:51:24;100207.72;;;2.41;89.27
18755;BME280;35061;47.664;9.166;2022-12-10T05:53:53;100213.24;;;2.44;89.37
18755;BME280;35061;47.664;9.166;2022-12-10T05:56:22;100209.05;;;2.49;89.59
18755;BME280;35061;47.664;9.166;2022-12-10T05:58:52;100209.74;;;2.53;89.44
18755;BME280;35061;47.664;9.166;2022-12-10T06:01:25;100199.12;;;2.57;89.56
18755;BME280;35061;47.664;9.166;2022-12-10T06:03:54;100211.31;;;2.54;88.82
18755;BME280;35061;47.664;9.166;2022-12-10T06:06:23;100205.55;;;2.45;88.94
18755;BME280;35061;47.664;9.166;2022-12-10T06:08:51;100210.86;;;2.43;89.50
18755;BME280;35061;47.664;9.166;2022-12-10T06:11:19;100215.73;;;2.42;89.14
18755;BME280;35061;47.664;9.166;2022-12-10T06:13:47;100220.60;;;2.42;89.53
18755;BME280;35061;47.664;9.166;2022-12-10T06:16:22;100222.63;;;2.41;89.45
18755;BME280;35061;47.664;9.166;2022-12-10T06:18:50;100218.25;;;2.40;89.76
18755;BME280;35061;47.664;9.166;2022-12-10T06:21:19;100221.38;;;2.42;89.76
18755;BME280;35061;47.664;9.166;2022-12-10T06:23:48;100223.91;;;2.40;89.52
18755;BME280;35061;47.664;9.166;2022-12-10T06:26:24;100227.96;;;2.39;89.64
18755;BME280;35061;47.664;9.166;2022-12-10T06:28:53;100219.00;;;2.41;89.95
18755;BME280;35061;47.664;9.166;2022-12-10T06:31:22;100223.74;;;2.44;89.97
18755;BME280;35061;47.664;9.166;2022-12-10T06:33:51;100228.97;;;2.45;89.76
18755;BME280;35061;47.664;9.166;2022-12-10T06:36:19;100225.80;;;2.43;89.52
18755;BME280;35061;47.664;9.166;2022-12-10T06:38:48;100223.41;;;2.42;89.58
18755;BME280;35061;47.664;9.166;2022-12-10T06:41:17;100227.37;;;2.44;89.93
18755;BME280;35061;47.664;9.166;2022-12-10T06:43:45;100227.37;;;2.44;89.70
18755;BME280;35061;47.664;9.166;2022-12-10T06:46:15;100233.84;;;2.45;89.88
18755;BME280;35061;47.664;9.166;2022-12-10T06:48:44;100233.38;;;2.46;89.83
18755;BME280;35061;47.664;9.166;2022-12-10T06:51:12;100231.69;;;2.49;90.02
18755;BME280;35061;47.664;9.166;2022-12-10T06:53:40;100235.09;;;2.57;90.24
18755;BME280;35061;47.664;9.166;2022-12-10T06:56:12;100233.06;;;2.57;89.63
18755;BME280;35061;47.664;9.166;2022-12-10T06:58:41;100231.33;;;2.60;89.93
18755;BME280;35061;47.664;9.166;2022-12-10T07:01:22;100239.96;;;2.56;89.84
18755;BME280;35061;47.664;9.166;2022-12-10T07:03:55;100242.77;;;2.56;89.87
18755;BME280;35061;47.664;9.166;2022-12-10T07:06:24;100247.19;;;2.57;89.98
18755;BME280;35061;47.664;9.166;2022-12-10T07:08:52;100252.26;;;2.62;89.76
18755;BME280;35061;47.664;9.166;2022-12-10T07:11:22;100235.64;;;2.64;89.84
18755;BME280;35061;47.664;9.166;2022-12-10T07:13:50;100240.74;;;2.70;89.89
18755;BME280;35061;47.664;9.166;2022-12-10T07:16:30;100247.19;;;2.70;89.50
18755;BME280;35061;47.664;9.166;2022-12-10T07:19:01;100248.43;;;2.69;89.14
18755;BME280;35061;47.664;9.166;2022-12-10T07:21:34;100241.43;;;2.61;89.11
18755;BME280;35061;47.664;9.166;2022-12-10T07:24:08;100245.95;;;2.58;89.28
18755;BME280;35061;47.664;9.166;2022-12-10T07:26:38;100242.67;;;2.47;89.35
18755;BME280;35061;47.664;9.166;2022-12-10T07:29:13;100245.03;;;2.35;89.73
18755;BME280;35061;47.664;9.166;2022-12-10T07:31:41;100246.80;;;2.29;89.83
18755;BME280;35061;47.664;9.166;2022-12-10T07:34:10;100253.14;;;2.20;90.13
18755;BME280;35061;47.664;9.166;2022-12-10T07:36:38;100260.13;;;2.16;90.16
18755;BME280;35061;47.664;9.166;2022-12-10T07:39:08;100261.12;;;2.09;90.18
18755;BME280;35061;47.664;9.166;2022-12-10T07:41:36;100253.30;;;2.00;90.23
18755;BME280;35061;47.664;9.166;2022-12-10T07:44:04;100258.80;;;1.91;90.92
18755;BME280;35061;47.664;9.166;2022-12-10T07:46:34;100252.81;;;1.89;91.25
18755;BME280;35061;47.664;9.166;2022-12-10T07:49:02;100255.20;;;1.90;91.34
18755;BME280;35061;47.664;9.166;2022-12-10T07:51:30;100259.16;;;1.93;91.33
18755;BME280;35061;47.664;9.166;2022-12-10T07:53:58;100267.88;;;1.99;91.29
18755;BME280;35061;47.664;9.166;2022-12-10T07:56:26;100270.80;;;1.95;91.29
18755;BME280;35061;47.664;9.166;2022-12-10T07:58:54;100264.81;;;1.93;91.16
18755;BME280;35061;47.664;9.166;2022-12-10T08:01:25;100263.24;;;1.92;91.49
18755;BME280;35061;47.664;9.166;2022-12-10T08:03:54;100267.63;;;1.93;91.67
18755;BME280;35061;47.664;9.166;2022-12-10T08:06:27;100274.06;;;1.93;91.68
18755;BME280;35061;47.664;9.166;2022-12-10T08:08:58;100272.04;;;1.94;91.49
18755;BME280;35061;47.664;9.166;2022-12-10T08:11:27;100266.94;;;1.89;91.60
18755;BME280;35061;47.664;9.166;2022-12-10T08:13:55;100266.94;;;1.89;91.77
18755;BME280;35061;47.664;9.166;2022-12-10T08:16:26;100270.47;;;1.93;91.72
18755;BME280;35061;47.664;9.166;2022-12-10T08:18:59;100273.73;;;1.91;91.73
18755;BME280;35061;47.664;9.166;2022-12-10T08:21:29;100274.06;;;1.93;91.83
18755;BME280;35061;47.664;9.166;2022-12-10T08:23:58;100280.28;;;1.88;92.08
18755;BME280;35061;47.664;9.166;2022-12-10T08:26:29;100290.41;;;1.86;92.02
18755;BME280;35061;47.664;9.166;2022-12-10T08:28:57;100286.79;;;1.85;92.14
18755;BME280;35061;47.664;9.166;2022-12-10T08:31:26;100286.55;;;1.79;92.81
18755;BME280;35061;47.664;9.166;2022-12-10T08:34:02;100305.06;;;1.80;92.52
18755;BME280;35061;47.664;9.166;2022-12-10T08:36:30;100299.90;;;1.79;92.34
18755;BME280;35061;47.664;9.166;2022-12-10T08:38:58;100299.54;;;1.77;92.76
18755;BME280;35061;47.664;9.166;2022-12-10T08:41:25;100303.13;;;1.77;92.88
18755;BME280;35061;47.664;9.166;2022-12-10T08:43:53;100309.12;;;1.79;92.88
18755;BME280;35061;47.664;9.166;2022-12-10T08:46:22;100305.46;;;1.83;92.97
18755;BME280;35061;47.664;9.166;2022-12-10T08:48:50;100302.05;;;1.88;92.59
18755;BME280;35061;47.664;9.166;2022-12-10T08:51:18;100305.36;;;1.86;92.68
18755;BME280;35061;47.664;9.166;2022-12-10T08:53:46;100310.10;;;1.89;92.61
18755;BME280;35061;47.664;9.166;2022-12-10T08:56:14;100316.91;;;1.92;92.57
18755;BME280;35061;47.664;9.166;2022-12-10T08:58:42;100313.44;;;1.84;92.80
18755;BME280;35061;47.664;9.166;2022-12-10T09:01:12;100325.21;;;1.83;93.40
18755;BME280;35061;47.664;9.166;2022-12-10T09:03:40;100321.68;;;1.78;93.17
18755;BME280;35061;47.664;9.166;2022-12-10T09:06:11;100324.95;;;1.77;92.96
18755;BME280;35061;47.664;9.166;2022-12-10T09:08:39;100330.48;;;1.80;93.12
18755;BME280;35061;47.664;9.166;2022-12-10T09:11:09;100335.28;;;1.84;93.02
18755;BME280;35061;47.664;9.166;2022-12-10T09:13:37;100335.61;;;1.86;92.88
18755;BME280;35061;47.664;9.166;2022-12-10T09:16:05;100340.91;;;1.84;92.46
18755;BME280;35061;47.664;9.166;2022-12-10T09:18:33;100347.34;;;1.84;92.60
18755;BME280;35061;47.664;9.166;2022-12-10T09:21:05;100343.75;;;1.84;92.07
18755;BME280;35061;47.664;9.166;2022-12-10T09:23:33;100340.45;;;1.85;92.30
18755;BME280;35061;47.664;9.166;2022-12-10T09:26:05;100346.56;;;1.84;92.31
18755;BME280;35061;47.664;9.166;2022-12-10T09:28:33;100344.89;;;1.86;92.46
18755;BME280;35061;47.664;9.166;2022-12-10T09:31:03;100350.55;;;1.86;92.26
18755;BME280;35061;47.664;9.166;2022-12-10T09:33:39;100354.57;;;1.85;92.08
18755;BME280;35061;47.664;9.166;2022-12-10T09:36:08;100359.19;;;1.79;91.85
18755;BME280;35061;47.664;9.166;2022-12-10T09:38:38;100367.66;;;1.79;92.27
18755;BME280;35061;47.664;9.166;2022-12-10T09:44:22;100370.56;;;1.75;91.65
18755;BME280;35061;47.664;9.166;2022-12-10T09:46:55;100381.52;;;1.73;91.83
18755;BME280;35061;47.664;9.166;2022-12-10T09:52:15;100381.88;;;1.75;91.88
18755;BME280;35061;47.664;9.166;2022-12-10T09:54:49;100384.85;;;1.68;92.10
18755;BME280;35061;47.664;9.166;2022-12-10T09:57:33;100385.77;;;1.65;92.15
18755;BME280;35061;47.664;9.166;2022-12-10T10:02:50;100391.13;;;1.59;92.22
18755;BME280;35061;47.664;9.166;2022-12-10T10:05:25;100383.48;;;1.60;92.20
18755;BME280;35061;47.664;9.166;2022-12-10T10:07:56;100387.50;;;1.59;92.28
18755;BME280;35061;47.664;9.166;2022-12-10T10:10:31;100390.18;;;1.49;92.38
18755;BME280;35061;47.664;9.166;2022-12-10T10:13:35;100384.69;;;1.42;92.63
18755;BME280;35061;47.664;9.166;2022-12-10T10:16:25;100389.82;;;1.31;93.00
18755;BME280;35061;47.664;9.166;2022-12-10T10:18:57;100390.51;;;1.35;92.63
18755;BME280;35061;47.664;9.166;2022-12-10T10:21:32;100384.85;;;1.35;92.62
18755;BME280;35061;47.664;9.166;2022-12-10T10:24:01;100393.32;;;1.35;92.67
18755;BME280;35061;47.664;9.166;2022-12-10T10:26:37;100390.51;;;1.35;92.77
18755;BME280;35061;47.664;9.166;2022-12-10T10:29:06;100391.23;;;1.39;92.85
18755;BME280;35061;47.664;9.166;2022-12-10T10:31:38;100398.39;;;1.44;93.10
18755;BME280;35061;47.664;9.166;2022-12-10T10:34:20;100396.33;;;1.44;92.89
18755;BME280;35061;47.664;9.166;2022-12-10T10:37:00;100396.76;;;1.43;93.12
18755;BME280;35061;47.664;9.166;2022-12-10T10:39:32;100405.62;;;1.45;93.06
18755;BME280;35061;47.664;9.166;2022-12-10T10:42:09;100394.34;;;1.45;92.92
18755;BME280;35061;47.664;9.166;2022-12-10T10:44:38;100405.68;;;1.41;92.85
18755;BME280;35061;47.664;9.166;2022-12-10T10:47:26;100403.30;;;1.39;92.73
18755;BME280;35061;47.664;9.166;2022-12-10T10:50:01;100394.50;;;1.37;93.17
18755;BME280;35061;47.664;9.166;2022-12-10T10:52:36;100401.79;;;1.35;93.11
18755;BME280;35061;47.664;9.166;2022-12-10T10:55:04;100406.83;;;1.27;92.90
18755;BME280;35061;47.664;9.166;2022-12-10T10:57:34;100402.84;;;1.24;93.04
18755;BME280;35061;47.664;9.166;2022-12-10T11:00:07;100409.80;;;1.20;93.55
18755;BME280;35061;47.664;9.166;2022-12-10T11:02:44;100411.93;;;1.16;93.53
18755;BME280;35061;47.664;9.166;2022-12-10T11:05:24;100416.41;;;1.13;93.82
18755;BME280;35061;47.664;9.166;2022-12-10T11:08:12;100405.55;;;1.11;93.87
18755;BME280;35061;47.664;9.166;2022-12-10T11:10:52;100412.68;;;1.16;94.38
18755;BME280;35061;47.664;9.166;2022-12-10T11:13:24;100413.76;;;1.22;94.15
18755;BME280;35061;47.664;9.166;2022-12-10T11:15:56;100415.72;;;1.25;94.07
18755;BME280;35061;47.664;9.166;2022-12-10T11:18:35;100413.53;;;1.33;94.73
18755;BME280;35061;47.664;9.166;2022-12-10T11:21:08;100408.95;;;1.39;94.40
18755;BME280;35061;47.664;9.166;2022-12-10T11:23:45;100405.68;;;1.41;93.93
18755;BME280;35061;47.664;9.166;2022-12-10T11:26:22;100416.45;;;1.46;94.30
18755;BME280;35061;47.664;9.166;2022-12-10T11:39:49;100432.76;;;1.38;93.18
18755;BME280;35061;47.664;9.166;2022-12-10T11:42:47;100427.98;;;1.35;93.02
18755;BME280;35061;47.664;9.166;2022-12-10T11:45:44;100438.41;;;1.38;93.39
18755;BME280;35061;47.664;9.166;2022-12-10T11:50:46;100436.20;;;1.30;92.49
18755;BME280;35061;47.664;9.166;2022-12-10T11:59:13;100445.02;;;1.11;93.06
18755;BME280;35061;47.664;9.166;2022-12-10T12:12:54;100456.01;;;1.26;93.77
18755;BME280;35061;47.664;9.166;2022-12-10T12:18:13;100469.38;;;1.42;93.14
18755;BME280;35061;47.664;9.166;2022-12-10T12:23:25;100467.72;;;1.45;92.85
18755;BME280;35061;47.664;9.166;2022-12-10T12:25:58;100460.09;;;1.42;92.78
18755;BME280;35061;47.664;9.166;2022-12-10T12:28:40;100464.15;;;1.41;92.43
18755;BME280;35061;47.664;9.166;2022-12-10T12:31:13;100463.37;;;1.40;92.81
18755;BME280;35061;47.664;9.166;2022-12-10T12:33:47;100473.14;;;1.35;92.57
18755;BME280;35061;47.664;9.166;2022-12-10T12:36:20;100479.29;;;1.30;92.34
18755;BME280;35061;47.664;9.166;2022-12-10T12:47:11;100493.05;;;1.28;93.61
18755;BME280;35061;47.664;9.166;2022-12-10T12:49:43;100506.83;;;1.26;94.56
18755;BME280;35061;47.664;9.166;2022-12-10T12:52:35;100498.95;;;1.17;94.69
18755;BME280;35061;47.664;9.166;2022-12-10T12:55:22;100495.31;;;1.17;94.81
18755;BME280;35061;47.664;9.166;2022-12-10T13:03:58;100502.93;;;1.00;96.91
18755;BME280;35061;47.664;9.166;2022-12-10T13:06:30;100508.91;;;1.02;97.69
18755;BME280;35061;47.664;9.166;2022-12-10T13:09:18;100514.58;;;1.02;97.35
18755;BME280;35061;47.664;9.166;2022-12-10T13:14:36;100516.30;;;1.16;98.54
18755;BME280;35061;47.664;9.166;2022-12-10T13:17:32;100523.53;;;1.17;98.02
18755;BME280;35061;47.664;9.166;2022-12-10T13:23:02;100533.21;;;1.16;97.74
18755;BME280;35061;47.664;9.166;2022-12-10T13:28:22;100533.70;;;1.10;97.39
18755;BME280;35061;47.664;9.166;2022-12-10T13:34:30;100540.60;;;1.09;98.13
18755;BME280;35061;47.664;9.166;2022-12-10T13:37:03;100553.85;;;1.13;98.22
18755;BME280;35061;47.664;9.166;2022-12-10T13:39:43;100573.20;;;1.10;97.66
18755;BME280;35061;47.664;9.166;2022-12-10T13:45:05;100571.70;;;1.06;96.76
18755;BME280;35061;47.664;9.166;2022-12-10T13:53:10;100590.54;;;1.13;93.81
18755;BME280;35061;47.664;9.166;2022-12-10T13:56:08;100590.54;;;1.13;93.81
18755;BME280;35061;47.664;9.166;2022-12-10T14:06:39;100602.67;;;1.09;92.61
18755;BME280;35061;47.664;9.166;2022-12-10T14:09:19;100597.83;;;1.10;92.67
18755;BME280;35061;47.664;9.166;2022-12-10T14:11:58;100612.41;;;1.05;91.72
18755;BME280;35061;47.664;9.166;2022-12-10T14:14:43;100612.05;;;1.03;92.36
18755;BME280;35061;47.664;9.166;2022-12-10T14:17:19;100616.66;;;0.93;91.85
18755;BME280;35061;47.664;9.166;2022-12-10T14:19:50;100623.66;;;0.85;91.75
18755;BME280;35061;47.664;9.166;2022-12-10T14:22:33;100624.55;;;0.81;92.08
18755;BME280;35061;47.664;9.166;2022-12-10T14:25:04;100635.44;;;0.79;92.61
18755;BME280;35061;47.664;9.166;2022-12-10T14:27:35;100633.41;;;0.80;92.42
18755;BME280;35061;47.664;9.166;2022-12-10T14:30:14;100638.70;;;0.78;92.65
18755;BME280;35061;47.664;9.166;2022-12-10T14:32:43;100651.98;;;0.77;92.68
18755;BME280;35061;47.664;9.166;2022-12-10T14:35:18;100656.40;;;0.78;92.91
18755;BME280;35061;47.664;9.166;2022-12-10T14:37:52;100661.30;;;0.74;92.84
18755;BME280;35061;47.664;9.166;2022-12-10T14:42:57;100665.06;;;0.67;92.87
18755;BME280;35061;47.664;9.166;2022-12-10T14:45:31;100653.42;;;0.65;93.12
18755;BME280;35061;47.664;9.166;2022-12-10T14:48:04;100662.22;;;0.67;93.22
18755;BME280;35061;47.664;9.166;2022-12-10T14:50:34;100667.41;;;0.69;93.08
18755;BME280;35061;47.664;9.166;2022-12-10T14:53:02;100663.39;;;0.70;92.96
18755;BME280;35061;47.664;9.166;2022-12-10T14:55:30;100666.63;;;0.68;92.96
18755;BME280;35061;47.664;9.166;2022-12-10T14:58:02;100673.07;;;0.69;93.03
18755;BME280;35061;47.664;9.166;2022-12-10T15:00:33;100673.07;;;0.69;92.71
18755;BME280;35061;47.664;9.166;2022-12-10T15:03:07;100681.90;;;0.71;93.45
18755;BME280;35061;47.664;9.166;2022-12-10T15:05:36;100680.17;;;0.77;93.67
18755;BME280;35061;47.664;9.166;2022-12-10T15:08:06;100680.49;;;0.83;93.80
18755;BME280;35061;47.664;9.166;2022-12-10T15:10:38;100690.08;;;0.89;93.70
18755;BME280;35061;47.664;9.166;2022-12-10T15:13:13;100688.84;;;0.90;93.76
18755;BME280;35061;47.664;9.166;2022-12-10T15:15:43;100691.65;;;0.90;93.23